Henderson, IL (61439)

7:34 AM CDT on April 26, 2017 (GMT -0500)
East Burch St | | Change Station

Elev 840 ft 41.03 °N, 90.28 °W | Updated 3 seconds ago

Overcast
Overcast
58.6 °F
Feels Like 58.6 °F
N
0.0
Wind Variable Wind from South
Gusts 0.0 mph

Today
High -- | Low -- °F
--% Chance of Precip.
Yesterday
High -- | Low -- °F
Precip. -- in
Pressure 29.36 in
Visibility 10.0 miles
Clouds Mostly Cloudy 10000 ft
Mostly Cloudy 12000 ft
Dew Point 57 °F
Humidity 94%
Rainfall 0.20 in
Snow Depth Not available.
6:05 AM 7:53 PM
New Moon, 0% visible
METAR KGBG 261215Z AUTO 00000KT 10SM -RA BKN100 BKN120 15/14 A2936 RMK AO2 LTG DSNT NE T01490143
Pressure 29.36 in
Visibility 10.0 miles
Clouds Mostly Cloudy 10000 ft
Mostly Cloudy 12000 ft
Dew Point 57 °F
Humidity 94%
Rainfall 0.20 in
Snow Depth Not available.
6:05 AM 7:53 PM
New Moon, 0% visible
METAR KGBG 261215Z AUTO 00000KT 10SM -RA BKN100 BKN120 15/14 A2936 RMK AO2 LTG DSNT NE T01490143

Get Severe Weather Alerts

Thanks for signing up!

Be on the lookout for a verification email in your inbox.

You'll start receiving the daily forecast at 8 AM.

×

10-Day Weather Forecast

Almanac

Astronomy

Apr. 26, 2017 Rise Set
Actual Time
Civil Twilight
Nautical Twilight
Astronomical Twilight
Moon
Length of Visible Light
Length of Day
Tomorrow will be .
, % of the Moon is Illuminated

Today's Extremes

State Highs State Lows

Community

WunderPhotos

WunderBlog® & News

Nearby

Air Quality

  Air Quality AQ Index Pollutant
Not available.

Snow Depth

Station Depth Elevation

Earthquake Activity

City Distance Mag. Time & Date
Minimum magnitude displayed is 2.5.

Coastal Water Temperatures

Place Temperature

Stations

Nearby Weather Stations

Station Location Temp. Windchill Dew Point Humidity Wind Precip. Elev Updated Type
                   

Watches & Warnings

There are currently no watches in effect.